Time;durP1;ratioP1;P1;durP2;ratioP2;P2;SDS_P1;SDS_P2;PMS_P1;PMS_P2;Temp;Humidity;BMP_temperature;BMP_pressure;BME280_temperature;BME280_humidity;BME280_pressure;Samples;Min_cycle;Max_cycle;Signal;HPM_P1;HPM_P2
2023/05/09 00:01:47;;;;;;;5.47;2.13;;;;;;;11.93;74.62;101123.63;5149575;28;20185;-73
2023/05/09 00:04:17;;;;;;;5.10;2.33;;;;;;;12.03;74.49;101134.66;5145459;28;20141;-73
2023/05/09 00:06:47;;;;;;;3.20;2.00;;;;;;;11.98;74.86;101126.94;5135415;28;20407;-73
2023/05/09 00:09:17;;;;;;;5.28;2.28;;;;;;;11.96;74.83;101123.53;5144993;28;20904;-71
2023/05/09 00:11:48;;;;;;;5.03;2.53;;;;;;;11.94;75.22;101119.28;5146939;28;20049;-71
2023/05/09 00:14:18;;;;;;;4.38;2.22;;;;;;;11.86;75.66;101130.00;5142572;28;20544;-71
2023/05/09 00:16:49;;;;;;;3.33;1.95;;;;;;;11.88;76.02;101130.78;5148038;28;20030;-71
2023/05/09 00:19:19;;;;;;;4.22;2.25;;;;;;;11.92;75.50;101124.53;5148585;28;20646;-74
2023/05/09 00:21:50;;;;;;;9.43;2.83;;;;;;;11.90;76.31;101128.09;5148696;28;20088;-73
2023/05/09 00:24:21;;;;;;;5.68;2.88;;;;;;;11.82;76.72;101130.97;5149906;28;20657;-71
2023/05/09 00:26:51;;;;;;;3.88;2.38;;;;;;;11.74;76.98;101125.13;5145898;28;20457;-72
2023/05/09 00:29:21;;;;;;;5.43;2.75;;;;;;;11.79;76.61;101119.75;5146020;28;20050;-73
2023/05/09 00:31:51;;;;;;;5.35;2.70;;;;;;;11.64;78.07;101121.06;5161189;28;20039;-73
2023/05/09 00:34:22;;;;;;;4.95;2.35;;;;;;;11.65;77.30;101119.31;5148300;28;20031;-73
2023/05/09 00:36:52;;;;;;;4.20;2.42;;;;;;;11.70;77.95;101114.78;5148413;28;20121;-73
2023/05/09 00:39:22;;;;;;;6.07;2.60;;;;;;;11.67;77.57;101123.63;5146158;28;20038;-72
2023/05/09 00:41:55;;;;;;;5.78;2.67;;;;;;;11.67;78.40;101118.38;5149017;28;20034;-73
2023/05/09 00:44:25;;;;;;;4.97;2.83;;;;;;;11.55;78.62;101112.63;5144335;28;20517;-71
2023/05/09 00:46:56;;;;;;;4.25;2.42;;;;;;;11.59;78.70;101115.13;5148010;28;20038;-70
2023/05/09 00:49:26;;;;;;;5.15;2.95;;;;;;;11.60;79.01;101118.63;5142133;28;20435;-72
2023/05/09 00:51:57;;;;;;;5.57;2.85;;;;;;;11.56;79.12;101117.84;5144504;28;20058;-73
2023/05/09 00:54:28;;;;;;;4.53;2.65;;;;;;;11.52;79.17;101108.34;5145957;28;20566;-71
2023/05/09 00:56:59;;;;;;;5.30;2.65;;;;;;;11.55;79.16;101105.63;5146186;28;20049;-73
2023/05/09 00:59:29;;;;;;;5.70;2.90;;;;;;;11.44;79.29;101104.25;5140860;28;20030;-73
2023/05/09 01:02:00;;;;;;;7.13;3.08;;;;;;;11.40;79.63;101100.88;5148004;28;20559;-71
2023/05/09 01:04:31;;;;;;;5.07;2.67;;;;;;;11.40;80.31;101100.88;5149493;28;20022;-71
2023/05/09 01:07:23;;;;;;;10.43;3.13;;;;;;;11.33;80.64;101094.13;5140660;28;20034;-71
2023/05/09 01:10:12;;;;;;;5.60;2.97;;;;;;;11.37;80.06;101098.34;5136050;28;20035;-72
2023/05/09 01:13:04;;;;;;;7.72;3.03;;;;;;;11.26;80.89;101094.34;5141140;28;20027;-72
2023/05/09 01:15:40;;;;;;;5.78;2.95;;;;;;;11.31;80.39;101090.66;5143416;28;20305;-72
2023/05/09 01:18:24;;;;;;;9.50;3.28;;;;;;;11.26;80.98;101092.56;5141043;28;20552;-71
2023/05/09 01:21:07;;;;;;;8.60;3.50;;;;;;;11.29;80.38;101089.84;5148739;28;20052;-73
2023/05/09 01:23:43;;;;;;;4.80;2.72;;;;;;;11.23;81.47;101092.66;5151364;28;20026;-72
2023/05/09 01:26:24;;;;;;;6.40;3.20;;;;;;;11.28;81.74;101087.31;5145622;28;20044;-71
2023/05/09 01:29:15;;;;;;;5.93;2.97;;;;;;;11.09;82.62;101080.91;5146084;28;20117;-72
2023/05/09 01:31:47;;;;;;;5.63;3.10;;;;;;;11.14;82.06;101076.38;5145285;28;20475;-71
2023/05/09 01:34:21;;;;;;;7.93;3.53;;;;;;;11.20;82.10;101081.44;5147224;28;20550;-71
2023/05/09 01:36:56;;;;;;;7.03;3.28;;;;;;;11.22;81.67;101070.03;5147208;28;20038;-71
2023/05/09 01:39:29;;;;;;;5.65;3.08;;;;;;;11.24;81.50;101075.22;5148610;28;20035;-73
2023/05/09 01:42:02;;;;;;;5.03;2.83;;;;;;;11.21;82.07;101073.53;5150944;28;20026;-71
2023/05/09 01:44:37;;;;;;;4.93;2.92;;;;;;;11.15;82.63;101065.03;5145572;28;20127;-71
2023/05/09 01:47:09;;;;;;;5.15;3.00;;;;;;;11.08;82.37;101071.34;5148814;28;20583;-70
2023/05/09 01:49:40;;;;;;;4.38;2.80;;;;;;;11.02;83.22;101069.78;5146885;28;20393;-71
2023/05/09 01:52:13;;;;;;;5.63;2.97;;;;;;;11.07;83.40;101075.72;5148126;28;20086;-71
2023/05/09 01:54:45;;;;;;;5.50;2.92;;;;;;;11.15;83.01;101070.25;5153593;28;20030;-71
2023/05/09 01:57:17;;;;;;;5.30;2.80;;;;;;;11.11;82.81;101073.88;5149480;28;20219;-72
2023/05/09 01:59:48;;;;;;;5.90;3.00;;;;;;;11.16;83.67;101069.34;5167500;28;20075;-71
2023/05/09 02:02:19;;;;;;;8.00;3.30;;;;;;;11.00;83.95;101069.88;5150515;28;20593;-71
2023/05/09 02:04:49;;;;;;;11.05;2.95;;;;;;;11.02;83.94;101068.91;5149018;28;20534;-72
2023/05/09 02:07:21;;;;;;;7.03;3.15;;;;;;;10.94;84.03;101070.03;5148949;28;20569;-71
2023/05/09 02:09:55;;;;;;;4.55;2.80;;;;;;;11.04;84.96;101065.34;5151535;28;20084;-72
2023/05/09 02:12:25;;;;;;;4.70;2.90;;;;;;;10.92;85.71;101066.59;5151063;28;20046;-71
2023/05/09 02:14:56;;;;;;;7.15;3.25;;;;;;;10.83;86.12;101065.09;5151199;28;20174;-72
2023/05/09 02:17:29;;;;;;;10.20;3.13;;;;;;;10.81;85.18;101056.44;5151062;28;20374;-72
2023/05/09 02:19:59;;;;;;;4.53;2.92;;;;;;;10.77;86.55;101067.91;5151467;28;20027;-71
2023/05/09 02:22:30;;;;;;;6.13;3.47;;;;;;;10.76;86.68;101057.47;5152525;28;20030;-72
2023/05/09 02:25:03;;;;;;;7.28;3.47;;;;;;;10.72;87.24;101054.09;5147531;28;20022;-72
2023/05/09 02:27:34;;;;;;;8.45;3.67;;;;;;;10.52;87.86;101063.41;5140755;28;20039;-72
2023/05/09 02:30:10;;;;;;;7.30;3.35;;;;;;;10.48;87.35;101067.00;5143558;28;20397;-71
2023/05/09 02:32:42;;;;;;;;;;;;;;;10.46;87.68;101058.31;5135964;28;20038;-72
2023/05/09 02:35:15;;;;;;;7.35;3.65;;;;;;;10.28;88.08;101054.47;5145306;28;20344;-73
2023/05/09 02:37:46;;;;;;;9.85;5.22;;;;;;;10.24;88.94;101060.69;5144230;28;20122;-72
2023/05/09 02:40:18;;;;;;;5.35;3.78;;;;;;;10.17;89.22;101066.09;5140451;28;20018;-70
2023/05/09 02:42:48;;;;;;;7.32;3.75;;;;;;;10.03;90.09;101058.59;5156632;28;20440;-70
2023/05/09 02:45:19;;;;;;;8.43;3.83;;;;;;;9.97;90.84;101063.13;5141053;28;20039;-72
2023/05/09 02:47:49;;;;;;;7.43;3.83;;;;;;;10.01;90.74;101057.78;5142701;28;20071;-71
2023/05/09 02:50:19;;;;;;;5.45;3.50;;;;;;;9.92;90.84;101058.00;5143186;28;20034;-71
2023/05/09 02:52:50;;;;;;;5.88;3.83;;;;;;;9.78;92.40;101056.63;5136377;28;20512;-72
2023/05/09 02:55:20;;;;;;;6.22;3.88;;;;;;;9.84;92.20;101061.72;5143594;28;20030;-72
2023/05/09 03:00:24;;;;;;;8.45;3.75;;;;;;;9.83;92.07;101058.22;5138143;28;20051;-72
2023/05/09 03:02:55;;;;;;;6.85;3.63;;;;;;;9.78;92.39;101059.22;5145844;28;20038;-72
2023/05/09 03:05:25;;;;;;;5.78;3.70;;;;;;;9.75;93.35;101057.56;5137518;28;20023;-72
2023/05/09 03:07:55;;;;;;;8.20;4.00;;;;;;;9.71;92.96;101049.84;5143694;28;20034;-73
2023/05/09 03:10:26;;;;;;;6.65;4.03;;;;;;;9.74;92.53;101047.16;5143478;28;20464;-72
2023/05/09 03:12:56;;;;;;;9.65;3.70;;;;;;;9.68;93.21;101050.75;5157898;28;20480;-72
2023/05/09 03:15:26;;;;;;;9.20;4.20;;;;;;;9.62;93.42;101053.53;5143421;28;20436;-73
2023/05/09 03:17:56;;;;;;;8.50;4.00;;;;;;;9.70;92.93;101054.22;5145798;28;20077;-71
2023/05/09 03:20:27;;;;;;;7.75;3.92;;;;;;;9.63;93.08;101049.19;5142457;28;21470;-73
2023/05/09 03:22:57;;;;;;;8.05;4.30;;;;;;;9.63;93.01;101041.34;5141506;28;20041;-73
2023/05/09 03:25:27;;;;;;;11.38;4.22;;;;;;;9.66;93.16;101047.34;5136169;28;20520;-71
2023/05/09 03:27:57;;;;;;;7.57;4.25;;;;;;;9.55;93.52;101045.88;5141617;28;20035;-71
2023/05/09 03:30:28;;;;;;;5.95;4.00;;;;;;;9.69;93.31;101041.19;5143676;28;20041;-73
2023/05/09 03:32:58;;;;;;;6.85;3.88;;;;;;;9.65;93.71;101044.78;5167221;28;20045;-72
2023/05/09 03:35:29;;;;;;;8.88;4.20;;;;;;;9.70;93.79;101038.56;5142568;28;20025;-72
2023/05/09 03:37:59;;;;;;;9.20;4.30;;;;;;;9.56;93.34;101034.56;5138913;28;20396;-73
2023/05/09 03:40:29;;;;;;;8.38;4.53;;;;;;;9.57;94.04;101037.13;5159204;28;20046;-71
2023/05/09 03:43:00;;;;;;;6.97;4.30;;;;;;;9.53;94.68;101040.72;5146613;28;20022;-72
2023/05/09 03:45:30;;;;;;;7.90;4.25;;;;;;;9.57;94.33;101037.13;5139798;28;20026;-73
2023/05/09 03:48:04;;;;;;;11.80;6.13;;;;;;;9.47;93.99;101038.25;5143427;28;20023;-74
2023/05/09 03:50:34;;;;;;;10.63;5.00;;;;;;;9.56;93.90;101029.34;5160936;28;20018;-72
2023/05/09 03:53:05;;;;;;;9.18;4.53;;;;;;;9.52;94.07;101038.13;5166038;28;20048;-73
2023/05/09 03:55:35;;;;;;;6.47;3.80;;;;;;;9.59;94.79;101031.88;5142399;28;20026;-70
2023/05/09 03:58:06;;;;;;;8.98;3.85;;;;;;;9.65;95.14;101029.97;5140027;28;20235;-72
2023/05/09 04:00:36;;;;;;;7.47;4.22;;;;;;;9.50;94.39;101032.09;5142080;28;20157;-72
2023/05/09 04:03:07;;;;;;;7.13;4.25;;;;;;;9.56;94.70;101021.50;5146678;28;20066;-70
2023/05/09 04:05:37;;;;;;;7.00;3.92;;;;;;;9.52;94.17;101022.47;5141298;28;20029;-72
2023/05/09 04:08:07;;;;;;;11.07;4.22;;;;;;;9.65;95.17;101029.13;5139216;28;20399;-73
2023/05/09 04:10:38;;;;;;;7.35;4.20;;;;;;;9.82;94.96;101029.56;5142902;28;20058;-73
2023/05/09 04:13:08;;;;;;;8.85;5.05;;;;;;;9.78;93.79;101027.91;5146332;28;20045;-73
2023/05/09 04:15:38;;;;;;;9.25;4.18;;;;;;;9.89;94.40;101029.38;5142093;28;20030;-70
2023/05/09 04:18:09;;;;;;;8.23;4.00;;;;;;;9.95;93.76;101023.09;5145691;28;20034;-71
2023/05/09 04:20:39;;;;;;;7.18;4.07;;;;;;;9.93;93.25;101014.47;5141202;28;20393;-72
2023/05/09 04:23:09;;;;;;;8.55;4.53;;;;;;;9.98;94.60;101020.44;5147126;28;20030;-71
2023/05/09 04:25:40;;;;;;;6.78;4.07;;;;;;;10.19;93.36;101017.28;5141195;28;20150;-71
2023/05/09 04:28:10;;;;;;;6.68;4.00;;;;;;;10.26;92.80;101018.81;5142573;28;20882;-72
2023/05/09 04:30:40;;;;;;;7.30;4.05;;;;;;;10.38;92.38;101013.28;5144543;28;20305;-71
2023/05/09 04:33:10;;;;;;;6.10;3.72;;;;;;;10.53;91.48;101011.09;5139620;28;20069;-72
2023/05/09 04:35:41;;;;;;;7.25;3.92;;;;;;;10.62;90.10;101008.22;5137947;28;20515;-73
2023/05/09 04:38:11;;;;;;;6.95;4.05;;;;;;;11.08;89.78;100998.13;5136550;28;20069;-74
2023/05/09 04:40:41;;;;;;;6.18;3.35;;;;;;;12.19;83.03;101003.09;5132017;28;20121;-73
2023/05/09 04:43:12;;;;;;;5.72;3.10;;;;;;;13.23;79.32;100989.53;5140948;28;20472;-73
2023/05/09 04:45:44;;;;;;;5.70;3.55;;;;;;;14.05;73.93;100987.84;5136124;28;20023;-71
2023/05/09 04:48:14;;;;;;;5.40;3.45;;;;;;;14.89;71.07;100984.88;5145242;28;20392;-72
2023/05/09 04:50:47;;;;;;;6.85;3.22;;;;;;;15.77;67.95;100982.31;5144319;28;20034;-73
2023/05/09 04:53:17;;;;;;;6.10;2.83;;;;;;;16.52;67.03;100978.38;5142026;28;20050;-72
2023/05/09 04:55:47;;;;;;;5.22;3.10;;;;;;;17.20;64.66;100974.53;5142473;28;20069;-73
2023/05/09 04:58:19;;;;;;;5.72;2.63;;;;;;;17.53;63.55;100974.41;5145444;28;21207;-71
2023/05/09 05:00:50;;;;;;;4.57;3.00;;;;;;;16.95;63.62;100978.63;5145062;28;20058;-72
2023/05/09 05:03:20;;;;;;;8.00;3.10;;;;;;;17.86;63.50;100970.66;5146426;28;20020;-72
2023/05/09 05:05:50;;;;;;;5.32;2.58;;;;;;;18.21;62.07;100971.19;5160229;28;20031;-70
2023/05/09 05:08:21;;;;;;;5.40;2.70;;;;;;;18.07;60.74;100968.53;5143471;28;20393;-71
2023/05/09 05:10:51;;;;;;;6.78;2.85;;;;;;;18.43;60.35;100966.31;5144903;28;20294;-73
2023/05/09 05:13:21;;;;;;;4.90;2.80;;;;;;;18.27;60.75;100966.44;5143872;28;20030;-72
2023/05/09 05:15:51;;;;;;;6.57;2.70;;;;;;;18.16;60.60;100973.28;5146418;28;20675;-73
2023/05/09 05:18:22;;;;;;;4.70;2.70;;;;;;;18.27;60.73;100961.13;5144580;28;20388;-72
2023/05/09 05:20:52;;;;;;;4.87;2.50;;;;;;;18.11;60.27;100962.09;5160269;28;20132;-73
2023/05/09 05:23:22;;;;;;;8.05;2.67;;;;;;;18.15;60.00;100964.47;5143279;28;20274;-72
2023/05/09 05:25:52;;;;;;;6.90;2.50;;;;;;;18.29;60.34;100959.25;5137571;28;20039;-73
2023/05/09 05:28:23;;;;;;;4.43;2.60;;;;;;;18.22;59.86;100957.91;5138478;28;20289;-72
2023/05/09 05:30:53;;;;;;;5.17;2.47;;;;;;;18.06;59.24;100958.91;5142328;28;20057;-73
2023/05/09 05:33:23;;;;;;;5.10;2.40;;;;;;;19.17;58.53;100953.59;5140488;28;20273;-73
2023/05/09 05:35:54;;;;;;;5.45;2.50;;;;;;;19.57;57.59;100951.81;5140308;28;20061;-72
2023/05/09 05:38:24;;;;;;;4.70;2.92;;;;;;;19.87;57.20;100955.06;5141212;28;20033;-73
2023/05/09 05:40:54;;;;;;;5.15;2.40;;;;;;;20.32;56.26;100958.13;5139851;28;20034;-73
2023/05/09 05:43:25;;;;;;;4.85;2.80;;;;;;;20.32;56.66;100958.13;5139869;28;20488;-72
2023/05/09 05:45:55;;;;;;;4.45;2.50;;;;;;;20.44;55.64;100954.63;5143608;28;20550;-73
2023/05/09 05:48:25;;;;;;;4.82;2.25;;;;;;;20.10;55.56;100949.94;5133537;28;20037;-73
2023/05/09 05:50:55;;;;;;;6.63;3.43;;;;;;;20.04;56.31;100947.72;5134522;28;20453;-72
2023/05/09 05:53:26;;;;;;;4.93;2.47;;;;;;;19.94;56.29;100941.28;5142115;28;20285;-73
2023/05/09 05:55:56;;;;;;;5.00;2.47;;;;;;;19.77;56.27;100952.19;5156633;28;20125;-73
2023/05/09 05:58:27;;;;;;;4.20;2.30;;;;;;;19.72;56.02;100946.34;5138208;28;20037;-74
2023/05/09 06:00:57;;;;;;;4.47;2.05;;;;;;;20.30;55.96;100938.78;5160812;28;20114;-73
2023/05/09 06:03:27;;;;;;;3.70;2.33;;;;;;;20.28;56.92;100932.75;5145977;28;20093;-73
2023/05/09 06:05:58;;;;;;;9.88;2.80;;;;;;;20.03;55.96;100943.38;5144439;28;20321;-73
2023/05/09 06:08:28;;;;;;;4.85;2.58;;;;;;;19.84;56.21;100945.53;5139261;28;20032;-73
2023/05/09 06:11:00;;;;;;;4.17;2.40;;;;;;;19.17;56.42;100942.13;5143595;28;20034;-73
2023/05/09 06:13:30;;;;;;;4.25;2.55;;;;;;;19.16;57.65;100938.66;5142032;28;20365;-72
2023/05/09 06:16:00;;;;;;;6.82;2.60;;;;;;;18.19;60.00;100941.34;5146768;28;20113;-72
2023/05/09 06:18:31;;;;;;;4.00;2.67;;;;;;;18.77;60.67;100935.03;5159593;28;20494;-72
2023/05/09 06:21:01;;;;;;;4.88;2.40;;;;;;;18.45;60.58;100930.03;5148169;28;20030;-73
2023/05/09 06:23:32;;;;;;;5.00;2.47;;;;;;;18.42;59.84;100922.28;5144943;28;20022;-73
2023/05/09 06:26:02;;;;;;;5.30;2.45;;;;;;;18.06;59.74;100930.66;5144650;28;20022;-73
2023/05/09 06:28:33;;;;;;;4.53;2.35;;;;;;;17.95;59.93;100924.28;5140736;28;20030;-73
2023/05/09 06:31:03;;;;;;;3.45;2.50;;;;;;;18.53;59.83;100919.81;5167873;28;20064;-73
2023/05/09 06:33:33;;;;;;;3.25;2.15;;;;;;;19.30;57.26;100909.41;5150516;28;20026;-72
2023/05/09 06:36:04;;;;;;;5.53;2.33;;;;;;;19.08;57.83;100908.28;5147110;28;20034;-73
2023/05/09 06:38:35;;;;;;;3.20;2.00;;;;;;;19.11;57.10;100900.94;5148537;28;20277;-73
2023/05/09 06:41:05;;;;;;;4.47;2.00;;;;;;;20.05;55.32;100896.34;5146994;28;20018;-72
2023/05/09 06:43:35;;;;;;;3.67;2.10;;;;;;;19.93;56.33;100891.84;5162316;28;20050;-73
2023/05/09 06:46:05;;;;;;;4.20;2.55;;;;;;;20.16;55.06;100888.44;5145983;28;20046;-73
2023/05/09 06:48:36;;;;;;;3.80;2.05;;;;;;;20.08;55.57;100893.47;5143944;28;20122;-73
2023/05/09 06:51:07;;;;;;;5.22;2.42;;;;;;;20.68;56.05;100889.09;5148790;28;20026;-73
2023/05/09 06:53:37;;;;;;;3.05;1.88;;;;;;;21.87;53.32;100878.34;5143181;28;20485;-74
2023/05/09 06:56:07;;;;;;;5.97;2.28;;;;;;;21.63;52.86;100874.91;5148651;28;20500;-73
2023/05/09 06:58:38;;;;;;;5.63;2.00;;;;;;;22.26;52.66;100868.09;5145610;28;20057;-72
2023/05/09 07:01:08;;;;;;;3.95;1.90;;;;;;;22.74;51.75;100867.75;5148348;28;20033;-73
2023/05/09 07:03:38;;;;;;;2.70;1.73;;;;;;;21.40;52.35;100873.13;5146315;28;20033;-73
2023/05/09 07:06:09;;;;;;;4.43;2.08;;;;;;;22.67;52.96;100860.38;5151142;28;20835;-73
2023/05/09 07:08:39;;;;;;;2.63;1.77;;;;;;;22.53;52.18;100865.94;5146266;28;20030;-73
2023/05/09 07:11:09;;;;;;;3.35;1.80;;;;;;;22.02;51.67;100858.53;5149647;28;20794;-73
2023/05/09 07:13:40;;;;;;;5.97;2.20;;;;;;;22.86;50.77;100856.06;5145939;28;20420;-73
2023/05/09 07:16:10;;;;;;;4.53;1.80;;;;;;;22.67;50.38;100854.16;5165810;28;20285;-73
2023/05/09 07:18:40;;;;;;;3.03;1.63;;;;;;;23.62;50.48;100850.56;5159537;28;20984;-73
2023/05/09 07:21:10;;;;;;;3.87;2.10;;;;;;;23.27;50.39;100847.34;5149402;28;20281;-74
2023/05/09 07:23:41;;;;;;;3.00;1.90;;;;;;;24.32;48.81;100839.03;5150099;28;20698;-73
2023/05/09 07:26:11;;;;;;;3.27;1.80;;;;;;;23.74;49.64;100845.00;5149022;28;20364;-74
2023/05/09 07:28:41;;;;;;;2.73;1.93;;;;;;;24.20;49.62;100840.09;5147342;28;20463;-73
2023/05/09 07:31:12;;;;;;;4.63;1.90;;;;;;;24.32;48.65;100844.38;5148159;28;20737;-73
2023/05/09 07:33:42;;;;;;;2.80;1.85;;;;;;;24.03;48.08;100840.72;5146069;28;20325;-74
2023/05/09 07:36:15;;;;;;;5.03;1.70;;;;;;;25.54;47.17;100831.34;5146338;28;20113;-74
2023/05/09 07:38:46;;;;;;;2.80;1.80;;;;;;;25.34;47.33;100830.53;5147584;28;20030;-73
2023/05/09 07:41:17;;;;;;;5.15;2.00;;;;;;;25.04;48.54;100830.66;5148664;28;20062;-73
2023/05/09 07:43:47;;;;;;;2.92;2.00;;;;;;;25.10;48.69;100830.06;5145536;28;20564;-73
2023/05/09 07:46:18;;;;;;;4.10;2.20;;;;;;;25.82;48.33;100833.16;5150907;28;20149;-73
2023/05/09 07:48:48;;;;;;;5.40;2.00;;;;;;;25.62;47.93;100818.06;5144803;28;20294;-72
2023/05/09 07:51:18;;;;;;;5.75;2.25;;;;;;;25.81;47.44;100815.38;5149665;28;20852;-73
2023/05/09 07:53:49;;;;;;;4.33;2.20;;;;;;;25.29;50.27;100818.56;5144295;28;20098;-73
2023/05/09 07:56:20;;;;;;;3.75;2.20;;;;;;;25.95;48.24;100812.25;5146815;28;20352;-73
2023/05/09 07:58:50;;;;;;;6.63;2.50;;;;;;;25.95;47.81;100810.44;5143123;28;20038;-72
2023/05/09 08:01:20;;;;;;;5.20;2.20;;;;;;;27.10;47.46;100795.41;5147388;28;20022;-72
2023/05/09 08:03:51;;;;;;;4.45;2.17;;;;;;;26.80;47.50;100801.94;5150571;28;20026;-73
2023/05/09 08:06:21;;;;;;;4.10;2.08;;;;;;;27.21;47.75;100798.69;5151449;28;20054;-74
2023/05/09 08:08:51;;;;;;;5.72;2.10;;;;;;;26.20;48.08;100788.31;5147726;28;20110;-73
2023/05/09 08:11:22;;;;;;;3.05;1.88;;;;;;;27.07;46.81;100793.84;5149599;28;20057;-73
2023/05/09 08:13:53;;;;;;;12.10;2.67;;;;;;;26.27;48.55;100797.47;5145975;28;20027;-74
2023/05/09 08:16:23;;;;;;;3.25;2.22;;;;;;;26.64;47.62;100781.31;5151774;28;20037;-72
2023/05/09 08:18:53;;;;;;;4.37;2.40;;;;;;;25.04;47.66;100777.13;5146693;28;20500;-72
2023/05/09 08:21:24;;;;;;;4.72;2.30;;;;;;;26.02;46.87;100775.84;5148460;28;20266;-73
2023/05/09 08:23:54;;;;;;;2.83;2.15;;;;;;;25.36;48.60;100776.84;5149678;28;20027;-72
2023/05/09 08:26:26;;;;;;;3.95;2.05;;;;;;;25.03;48.71;100769.25;5150662;28;20019;-73
2023/05/09 08:28:56;;;;;;;5.78;2.28;;;;;;;25.08;49.35;100770.50;5148377;28;20026;-73
2023/05/09 08:31:26;;;;;;;3.17;2.10;;;;;;;25.48;48.09;100765.84;5149434;28;20378;-72
2023/05/09 08:33:57;;;;;;;4.85;2.15;;;;;;;24.56;48.33;100767.38;5151248;28;20277;-73
2023/05/09 08:36:27;;;;;;;3.50;2.17;;;;;;;24.00;49.44;100766.22;5145189;28;20029;-73
2023/05/09 08:38:57;;;;;;;6.10;2.10;;;;;;;23.84;49.21;100762.34;5143805;28;20286;-73
2023/05/09 08:41:28;;;;;;;5.23;2.43;;;;;;;23.96;49.60;100763.94;5149449;28;20770;-72
2023/05/09 08:43:59;;;;;;;4.07;2.53;;;;;;;23.47;51.88;100761.13;5149502;28;20269;-73
2023/05/09 08:46:35;;;;;;;6.93;2.15;;;;;;;23.87;52.73;100754.06;5150584;28;20027;-72
2023/05/09 08:49:07;;;;;;;4.13;2.13;;;;;;;23.77;49.90;100748.66;5149829;28;20026;-73
2023/05/09 08:51:38;;;;;;;3.92;2.10;;;;;;;23.39;50.90;100745.75;5166346;28;20026;-73
2023/05/09 08:54:10;;;;;;;4.15;2.20;;;;;;;23.72;51.63;100750.84;5146348;28;20030;-73
2023/05/09 08:56:41;;;;;;;3.22;2.20;;;;;;;23.56;50.93;100739.81;5131486;28;20053;-73
2023/05/09 08:59:12;;;;;;;4.68;2.40;;;;;;;23.22;52.87;100738.34;5144105;28;20094;-73
2023/05/09 09:01:43;;;;;;;5.63;2.20;;;;;;;22.99;54.25;100727.94;5146518;28;20019;-73
2023/05/09 09:04:13;;;;;;;5.93;2.78;;;;;;;22.22;53.19;100732.66;5150524;28;20113;-73
2023/05/09 09:06:44;;;;;;;4.50;2.47;;;;;;;21.85;55.32;100731.22;5149792;28;20030;-73
2023/05/09 09:09:16;;;;;;;4.90;2.90;;;;;;;21.32;57.41;100726.56;5145755;28;20054;-73
2023/05/09 09:11:47;;;;;;;4.65;2.75;;;;;;;21.95;56.78;100711.72;5150617;28;20041;-73
2023/05/09 09:14:26;;;;;;;4.55;2.65;;;;;;;21.35;57.05;100716.53;5149304;28;20407;-72
2023/05/09 09:16:57;;;;;;;5.43;2.75;;;;;;;21.06;56.91;100714.44;5150446;28;20261;-72
2023/05/09 09:19:30;;;;;;;5.18;2.63;;;;;;;20.79;57.24;100724.47;5149512;28;20046;-72
2023/05/09 09:22:03;;;;;;;7.38;3.00;;;;;;;21.41;58.67;100715.22;5149811;28;20468;-72
2023/05/09 09:24:34;;;;;;;4.25;2.60;;;;;;;21.76;58.15;100716.00;5149645;28;20485;-72
2023/05/09 09:27:05;;;;;;;6.95;3.35;;;;;;;21.35;57.94;100710.38;5145903;28;20058;-73
2023/05/09 09:29:37;;;;;;;5.70;2.60;;;;;;;21.30;56.95;100710.75;5146763;28;20059;-73
2023/05/09 09:32:07;;;;;;;5.88;3.17;;;;;;;20.82;58.35;100713.59;5147955;28;20034;-73
2023/05/09 09:34:38;;;;;;;5.97;2.85;;;;;;;20.39;58.41;100707.13;5144574;28;20030;-73
2023/05/09 09:37:08;;;;;;;6.68;2.80;;;;;;;20.71;59.48;100702.94;5146395;28;20034;-73
2023/05/09 09:39:52;;;;;;;5.93;3.10;;;;;;;20.52;58.15;100704.41;5150451;28;20392;-73
2023/05/09 09:42:23;;;;;;;3.63;2.58;;;;;;;20.60;60.02;100694.91;5147312;28;20115;-72
2023/05/09 09:45:01;;;;;;;6.73;2.80;;;;;;;20.88;58.48;100689.25;5145671;28;20566;-73
2023/05/09 09:47:32;;;;;;;7.28;2.67;;;;;;;21.49;57.85;100681.75;5142721;28;20343;-73
2023/05/09 09:50:10;;;;;;;3.92;2.40;;;;;;;21.70;57.82;100668.56;5146604;28;20721;-73
2023/05/09 09:52:54;;;;;;;4.38;2.20;;;;;;;21.23;56.72;100676.78;5143243;28;20040;-73
2023/05/09 09:55:25;;;;;;;3.97;2.40;;;;;;;21.69;58.36;100661.56;5147894;28;20408;-72
2023/05/09 09:57:56;;;;;;;4.65;2.63;;;;;;;21.61;58.62;100669.28;5149843;28;20031;-72
2023/05/09 10:00:27;;;;;;;6.68;2.40;;;;;;;21.46;56.61;100662.50;5150668;28;20110;-72
2023/05/09 10:02:58;;;;;;;4.30;2.17;;;;;;;20.78;58.08;100669.63;5146349;28;20619;-72
2023/05/09 10:05:30;;;;;;;3.50;2.10;;;;;;;21.19;58.13;100657.53;5144051;28;20101;-73
2023/05/09 10:08:03;;;;;;;6.43;2.20;;;;;;;21.29;56.80;100663.84;5146309;28;20081;-73
2023/05/09 10:10:35;;;;;;;5.10;2.70;;;;;;;21.10;57.73;100660.06;5150037;28;20042;-72
2023/05/09 10:13:08;;;;;;;5.43;2.90;;;;;;;21.00;59.34;100653.75;5149477;28;20058;-72
2023/05/09 10:15:42;;;;;;;4.18;2.42;;;;;;;20.89;59.88;100641.28;5139259;28;20034;-73
2023/05/09 10:18:18;;;;;;;5.07;2.80;;;;;;;20.80;58.99;100639.31;5142998;28;20060;-72
2023/05/09 10:20:49;;;;;;;6.03;2.92;;;;;;;20.40;59.73;100649.56;5150221;28;20042;-72
2023/05/09 10:23:20;;;;;;;4.00;2.90;;;;;;;20.50;60.69;100642.59;5154624;28;20180;-73
2023/05/09 10:25:58;;;;;;;10.38;2.90;;;;;;;20.63;60.54;100628.28;5146089;28;20034;-72
2023/05/09 10:28:32;;;;;;;9.65;2.92;;;;;;;21.01;61.11;100620.88;5133456;28;20117;-73
2023/05/09 10:31:08;;;;;;;6.45;2.90;;;;;;;20.87;59.71;100629.94;5141233;28;20034;-73
2023/05/09 10:33:47;;;;;;;5.43;2.90;;;;;;;20.50;59.45;100627.50;5149257;28;20032;-73
2023/05/09 10:36:19;;;;;;;7.75;2.90;;;;;;;20.20;61.50;100623.66;5148264;28;20026;-73
2023/05/09 10:38:52;;;;;;;4.75;3.47;;;;;;;20.36;61.04;100616.22;5152250;28;20034;-72
2023/05/09 10:41:24;;;;;;;5.95;3.10;;;;;;;20.36;63.18;100614.44;5155120;28;20047;-72
2023/05/09 10:43:56;;;;;;;4.80;3.22;;;;;;;20.72;62.82;100603.69;5152866;28;20038;-73
2023/05/09 10:46:26;;;;;;;5.63;3.28;;;;;;;20.78;61.00;100600.53;5152968;28;20034;-72
2023/05/09 10:48:57;;;;;;;4.60;3.10;;;;;;;20.63;61.75;100606.19;5152819;28;20488;-72
2023/05/09 10:51:28;;;;;;;7.47;3.05;;;;;;;20.50;61.61;100594.81;5154127;28;20034;-73
2023/05/09 10:53:58;;;;;;;6.57;3.20;;;;;;;20.50;62.22;100582.34;5156140;28;20378;-73
2023/05/09 10:56:31;;;;;;;8.13;3.05;;;;;;;20.35;62.59;100591.50;5154509;28;20026;-73
2023/05/09 10:59:01;;;;;;;6.97;3.05;;;;;;;20.30;60.97;100567.09;5153710;28;20027;-72
2023/05/09 11:01:35;;;;;;;10.80;3.35;;;;;;;20.57;61.70;100580.94;5152821;28;20503;-73
2023/05/09 11:04:11;;;;;;;5.20;3.00;;;;;;;20.38;61.43;100571.81;5150721;28;20022;-73
2023/05/09 11:06:45;;;;;;;4.75;2.95;;;;;;;20.39;61.21;100552.28;5147547;28;20033;-73
2023/05/09 11:09:28;;;;;;;6.47;3.28;;;;;;;20.07;62.22;100567.97;5151985;28;20105;-73
2023/05/09 11:12:00;;;;;;;6.22;3.30;;;;;;;20.46;62.27;100554.34;5151917;28;20030;-73
2023/05/09 11:14:36;;;;;;;5.57;3.08;;;;;;;20.46;62.35;100557.00;5152293;28;20060;-73
2023/05/09 11:17:09;;;;;;;5.40;2.90;;;;;;;20.30;63.37;100548.50;5153925;28;20310;-73
2023/05/09 11:19:45;;;;;;;5.82;3.10;;;;;;;20.48;61.35;100549.75;5143934;28;20030;-73
2023/05/09 11:22:21;;;;;;;8.02;2.97;;;;;;;20.54;62.75;100544.00;5150559;28;20061;-73
2023/05/09 11:25:03;;;;;;;9.05;3.10;;;;;;;20.82;63.21;100543.53;5151311;28;20274;-72
2023/05/09 11:27:43;;;;;;;8.90;3.20;;;;;;;20.63;62.27;100537.97;5146164;28;20042;-72
2023/05/09 11:30:15;;;;;;;6.88;3.42;;;;;;;20.35;61.67;100535.75;5168465;28;20034;-73
2023/05/09 11:32:59;;;;;;;6.15;2.90;;;;;;;20.79;63.77;100527.84;5150023;28;20045;-73
2023/05/09 11:35:30;;;;;;;4.53;2.70;;;;;;;20.51;63.08;100520.31;5151080;28;20026;-72
2023/05/09 11:38:06;;;;;;;7.00;2.90;;;;;;;20.79;63.79;100514.56;5149369;28;20030;-72
2023/05/09 11:40:38;;;;;;;4.57;2.70;;;;;;;20.68;61.96;100512.75;5148587;28;20084;-73
2023/05/09 11:43:09;;;;;;;6.15;2.67;;;;;;;20.63;62.43;100507.91;5142050;28;20026;-73
2023/05/09 11:45:40;;;;;;;4.88;3.08;;;;;;;20.38;61.21;100503.66;5151598;28;20032;-72
2023/05/09 11:48:10;;;;;;;6.70;2.80;;;;;;;20.39;62.24;100499.16;5164168;28;20033;-73
2023/05/09 11:50:40;;;;;;;5.82;2.97;;;;;;;20.37;62.33;100495.78;5151496;28;20741;-72